createdAt,value
2022-12-31T00:03:54.719Z,15.57
2022-12-31T00:08:49.165Z,14.67
2022-12-31T00:13:43.265Z,14.80
2022-12-31T00:18:38.282Z,15.13
2022-12-31T00:28:36.704Z,17.90
2022-12-31T00:33:30.092Z,17.30
2022-12-31T00:38:25.062Z,16.83
2022-12-31T00:48:57.655Z,19.20
2022-12-31T01:23:43.050Z,20.87
2022-12-31T01:28:37.323Z,21.47
2022-12-31T01:33:30.718Z,18.83
2022-12-31T01:38:24.060Z,21.93
2022-12-31T01:43:21.782Z,20.93
2022-12-31T01:48:20.780Z,18.33
2022-12-31T01:53:16.614Z,15.60
2022-12-31T01:58:14.933Z,18.20
2022-12-31T04:00:31.351Z,2.80
2022-12-31T04:05:25.043Z,2.77
2022-12-31T04:10:20.102Z,1.87
2022-12-31T04:15:18.542Z,1.70
2022-12-31T04:20:14.174Z,1.60
2022-12-31T04:25:11.439Z,1.40
2022-12-31T04:30:05.939Z,1.20
2022-12-31T04:34:59.338Z,1.70
2022-12-31T04:39:54.042Z,1.40
2022-12-31T04:44:47.391Z,1.20
2022-12-31T04:49:40.708Z,1.07
2022-12-31T04:54:34.065Z,2.33
2022-12-31T04:59:29.011Z,1.30
2022-12-31T05:04:22.394Z,0.90
2022-12-31T05:09:15.683Z,1.00
2022-12-31T05:14:09.089Z,0.97
2022-12-31T05:19:06.445Z,1.17
2022-12-31T05:23:59.830Z,1.00
2022-12-31T05:28:53.276Z,0.70
2022-12-31T05:33:46.679Z,1.10
2022-12-31T05:38:41.460Z,1.10
2022-12-31T05:43:35.635Z,1.10
2022-12-31T05:48:29.188Z,0.80
2022-12-31T05:53:22.744Z,1.10
2022-12-31T05:58:18.460Z,0.97
2022-12-31T06:03:12.374Z,0.90
2022-12-31T06:08:06.374Z,1.00
2022-12-31T06:12:59.728Z,0.90
2022-12-31T06:17:54.626Z,0.90
2022-12-31T06:22:48.101Z,0.80
2022-12-31T06:27:41.587Z,0.90
2022-12-31T06:32:35.535Z,0.80
2022-12-31T06:37:30.321Z,0.90
2022-12-31T06:42:23.679Z,0.90
2022-12-31T06:47:17.116Z,0.70
2022-12-31T06:52:10.465Z,0.80
2022-12-31T06:57:06.485Z,0.90
2022-12-31T07:02:17.921Z,0.90
2022-12-31T07:07:22.314Z,0.60
2022-12-31T07:12:31.169Z,1.20
2022-12-31T07:17:33.166Z,1.10
2022-12-31T07:22:27.514Z,1.43
2022-12-31T07:27:54.206Z,1.60
2022-12-31T07:33:12.768Z,1.60
2022-12-31T07:38:05.851Z,2.23
2022-12-31T07:43:14.861Z,2.40
2022-12-31T08:01:41.215Z,2.63
2022-12-31T13:47:46.585Z,3.20
2022-12-31T17:11:39.278Z,12.50
2022-12-31T17:16:34.577Z,11.00
2022-12-31T17:21:32.641Z,16.33
2022-12-31T17:26:32.077Z,10.10
2022-12-31T17:31:38.281Z,14.73
2022-12-31T17:36:31.777Z,17.67
2022-12-31T17:41:28.605Z,16.07
2022-12-31T17:46:26.249Z,17.37
2022-12-31T17:51:24.635Z,14.07
2022-12-31T17:56:20.266Z,14.93
2022-12-31T18:01:17.960Z,14.83
2022-12-31T18:06:16.877Z,14.77
2022-12-31T18:30:48.356Z,16.93
2022-12-31T18:36:08.313Z,16.00
2022-12-31T18:40:59.421Z,19.07
2022-12-31T18:45:55.567Z,15.43
2022-12-31T18:50:49.939Z,13.90
2022-12-31T18:55:48.732Z,13.93
2022-12-31T19:00:42.338Z,13.73
2022-12-31T19:05:39.419Z,12.60
2022-12-31T19:10:33.054Z,13.27
2022-12-31T19:15:33.046Z,12.00
2022-12-31T19:20:26.682Z,15.30
2022-12-31T19:25:24.317Z,16.20
2022-12-31T19:30:22.470Z,15.40
2022-12-31T19:35:17.718Z,18.87
2022-12-31T19:40:17.151Z,17.20
2022-12-31T19:58:20.120Z,23.10
2022-12-31T20:03:15.044Z,22.80
2022-12-31T20:08:09.240Z,26.77
2022-12-31T20:13:02.694Z,27.17
2022-12-31T20:17:59.677Z,22.90
2022-12-31T20:55:32.534Z,20.37
2022-12-31T21:00:26.040Z,20.40
2022-12-31T21:05:19.682Z,23.20
2022-12-31T21:10:15.221Z,23.20
2022-12-31T21:15:11.702Z,23.47
2022-12-31T21:20:06.450Z,31.17
2022-12-31T21:25:01.167Z,31.07
2022-12-31T21:30:17.664Z,32.93
2022-12-31T21:40:23.992Z,64.60
2022-12-31T21:45:17.741Z,56.93
2022-12-31T21:50:12.575Z,55.57
2022-12-31T21:55:25.627Z,77.43
2022-12-31T22:00:44.211Z,68.03
2022-12-31T22:05:40.868Z,93.20
2022-12-31T22:10:37.262Z,66.83
2022-12-31T22:15:31.107Z,67.70
2022-12-31T22:20:28.483Z,74.13
2022-12-31T22:25:23.877Z,80.37
2022-12-31T22:30:20.187Z,73.70
2022-12-31T22:35:14.049Z,75.53
2022-12-31T22:40:08.947Z,67.70
2022-12-31T22:45:03.719Z,69.20
2022-12-31T22:49:57.086Z,68.60
2022-12-31T22:54:50.421Z,68.17
2022-12-31T22:59:43.950Z,56.43
2022-12-31T23:04:38.657Z,51.40
2022-12-31T23:09:49.404Z,54.07
2022-12-31T23:14:59.942Z,54.13
2022-12-31T23:20:12.070Z,124.97
2022-12-31T23:25:06.430Z,100.83
2022-12-31T23:29:59.836Z,47.93
2022-12-31T23:34:55.702Z,46.50
2022-12-31T23:39:49.032Z,49.83
